Time;durP1;ratioP1;P1;durP2;ratioP2;P2;SDS_P1;SDS_P2;PMS_P1;PMS_P2;Temp;Humidity;BMP_temperature;BMP_pressure;BME280_temperature;BME280_humidity;BME280_pressure;Samples;Min_cycle;Max_cycle;Signal;HPM_P1;HPM_P2
2022/08/09 00:01:58;;;;;;;1.40;1.30;;;;;;;20.88;36.16;99570.91;5097922;27;43744;-76
2022/08/09 00:04:27;;;;;;;1.20;1.10;;;;;;;20.83;36.43;99567.78;5133443;27;39703;-77
2022/08/09 00:06:55;;;;;;;1.20;1.03;;;;;;;20.79;36.59;99567.22;5097615;27;40822;-76
2022/08/09 00:09:22;;;;;;;1.40;1.20;;;;;;;20.75;37.07;99565.81;5133283;27;42819;-76
2022/08/09 00:11:50;;;;;;;2.13;1.50;;;;;;;20.72;37.04;99566.09;5133432;27;43234;-76
2022/08/09 00:14:18;;;;;;;1.77;1.30;;;;;;;20.68;37.02;99570.91;5097275;27;41695;-76
2022/08/09 00:16:47;;;;;;;1.33;1.23;;;;;;;20.62;36.70;99562.59;5114769;27;40864;-77
2022/08/09 00:19:15;;;;;;;1.13;1.03;;;;;;;20.60;37.55;99564.56;5132772;27;42688;-76
2022/08/09 00:21:44;;;;;;;1.60;1.50;;;;;;;20.47;37.89;99555.91;5096252;27;42076;-76
2022/08/09 00:24:11;;;;;;;1.97;1.37;;;;;;;20.21;37.58;99516.09;5114651;27;39986;-76
2022/08/09 00:26:39;;;;;;;1.57;1.47;;;;;;;20.49;38.12;99559.31;5097752;27;41763;-76
2022/08/09 00:29:07;;;;;;;1.70;1.40;;;;;;;20.50;38.42;99569.09;5114614;27;42686;-76
2022/08/09 00:31:35;;;;;;;1.97;1.30;;;;;;;20.49;38.31;99559.31;5114776;27;41156;-76
2022/08/09 00:34:03;;;;;;;1.50;1.40;;;;;;;20.47;38.24;99558.59;5114285;27;40814;-77
2022/08/09 00:36:31;;;;;;;1.50;1.40;;;;;;;20.42;38.28;99559.88;5114410;27;41789;-77
2022/08/09 00:39:00;;;;;;;2.03;1.33;;;;;;;20.41;38.09;99562.69;5097354;27;43405;-76
2022/08/09 00:41:28;;;;;;;1.73;1.10;;;;;;;20.34;38.41;99553.47;5114269;27;42377;-76
2022/08/09 00:43:56;;;;;;;1.77;1.67;;;;;;;20.06;38.50;99509.41;5114230;27;40066;-76
2022/08/09 00:46:23;;;;;;;2.00;1.53;;;;;;;19.95;38.84;99482.66;5114020;27;42044;-76
2022/08/09 00:48:51;;;;;;;2.53;1.50;;;;;;;20.31;38.53;99553.75;5132595;27;42710;-76
2022/08/09 00:51:19;;;;;;;1.20;1.10;;;;;;;20.29;38.81;99551.19;5096693;27;43489;-77
2022/08/09 00:53:48;;;;;;;1.40;1.30;;;;;;;20.25;39.00;99548.94;5097508;27;40134;-76
2022/08/09 00:56:18;;;;;;;1.70;1.23;;;;;;;20.22;38.73;99551.91;5114387;27;42637;-77
2022/08/09 00:58:46;;;;;;;4.50;1.13;;;;;;;20.20;39.12;99551.19;5096945;27;41697;-76
2022/08/09 01:01:18;;;;;;;1.90;1.27;;;;;;;20.19;38.74;99553.03;5096852;27;42188;-76
2022/08/09 01:03:54;;;;;;;1.20;1.10;;;;;;;20.20;38.93;99543.97;5114501;27;38557;-76
2022/08/09 01:06:32;;;;;;;1.77;1.33;;;;;;;20.06;38.94;99522.84;5114077;27;40763;-76
2022/08/09 01:09:11;;;;;;;2.57;1.50;;;;;;;20.08;39.30;99528.94;5113938;27;42993;-77
2022/08/09 01:11:51;;;;;;;3.47;1.27;;;;;;;20.15;39.37;99550.78;5111237;27;42287;-76
2022/08/09 01:14:27;;;;;;;1.43;1.33;;;;;;;20.10;39.27;99545.81;5096294;27;40062;-77
2022/08/09 01:17:02;;;;;;;2.30;1.83;;;;;;;20.07;39.13;99538.84;5097024;27;41699;-76
2022/08/09 01:19:43;;;;;;;1.30;1.20;;;;;;;20.03;39.39;99541.94;5129967;27;43835;-76
2022/08/09 01:22:36;;;;;;;2.03;1.30;;;;;;;19.98;39.56;99539.69;5097121;27;41938;-76
2022/08/09 01:25:18;;;;;;;1.47;1.37;;;;;;;19.96;39.34;99540.81;5112064;27;40088;-76
2022/08/09 01:27:50;;;;;;;1.40;1.30;;;;;;;19.92;39.62;99542.06;5132567;27;41538;-76
2022/08/09 01:30:20;;;;;;;1.50;1.40;;;;;;;19.90;39.66;99542.25;5096825;27;43355;-76
2022/08/09 01:32:50;;;;;;;1.37;1.20;;;;;;;19.87;39.48;99547.88;5113884;27;40796;-76
2022/08/09 01:35:25;;;;;;;1.80;1.70;;;;;;;19.85;39.78;99554.38;5096744;27;39919;-76
2022/08/09 01:37:58;;;;;;;2.07;1.30;;;;;;;19.82;39.60;99549.28;5110548;27;41800;-77
2022/08/09 01:40:28;;;;;;;1.33;1.20;;;;;;;19.78;39.69;99550.56;5130915;27;42742;-76
2022/08/09 01:42:58;;;;;;;1.20;1.10;;;;;;;19.73;40.03;99541.06;5113544;27;41478;-76
2022/08/09 01:45:28;;;;;;;1.53;1.43;;;;;;;19.72;39.68;99549.25;5132380;27;39812;-76
2022/08/09 01:47:58;;;;;;;1.60;1.50;;;;;;;19.67;40.03;99544.28;5096717;27;41820;-77
2022/08/09 01:50:28;;;;;;;1.60;1.50;;;;;;;19.56;40.05;99539.00;5096432;27;43112;-75
2022/08/09 01:52:57;;;;;;;1.57;1.33;;;;;;;19.59;39.43;99557.56;5113320;27;42317;-76
2022/08/09 01:55:26;;;;;;;1.03;0.93;;;;;;;19.55;39.24;99558.81;5130932;27;39967;-76
2022/08/09 01:57:57;;;;;;;0.93;0.83;;;;;;;19.44;39.33;99550.81;5113632;27;40760;-76
2022/08/09 02:00:27;;;;;;;1.30;1.20;;;;;;;19.29;39.47;99536.03;5096084;27;41702;-76
2022/08/09 02:02:56;;;;;;;1.20;1.10;;;;;;;19.40;39.31;99556.59;5113565;27;43038;-75
2022/08/09 02:05:25;;;;;;;1.70;1.40;;;;;;;19.35;39.91;99557.00;5096332;27;40278;-76
2022/08/09 02:07:57;;;;;;;1.23;1.13;;;;;;;19.31;40.10;99558.25;5113660;27;41688;-76
2022/08/09 02:10:29;;;;;;;2.47;1.23;;;;;;;19.27;40.04;99563.06;5096581;27;41511;-76
2022/08/09 02:13:03;;;;;;;1.63;1.30;;;;;;;19.23;40.70;99563.44;5113644;27;43130;-76
2022/08/09 02:15:34;;;;;;;3.70;1.30;;;;;;;19.20;40.27;99569.06;5116205;27;41059;-76
2022/08/09 02:18:03;;;;;;;1.30;1.17;;;;;;;19.09;40.36;99555.72;5116931;27;41507;-76
2022/08/09 02:20:32;;;;;;;2.87;1.27;;;;;;;19.11;40.34;99559.13;5099802;27;41537;-76
2022/08/09 02:23:06;;;;;;;1.13;1.03;;;;;;;19.09;40.49;99567.31;5116916;27;42300;-76
2022/08/09 02:25:38;;;;;;;1.30;1.20;;;;;;;19.05;40.83;99563.19;5099762;27;38576;-76
2022/08/09 02:28:10;;;;;;;1.87;1.63;;;;;;;19.01;40.98;99565.31;5100016;27;40874;-76
2022/08/09 02:30:43;;;;;;;1.30;1.20;;;;;;;19.00;41.13;99562.75;5134296;27;42654;-76
2022/08/09 02:33:14;;;;;;;1.93;1.30;;;;;;;18.97;41.55;99555.81;5099700;27;41143;-76
2022/08/09 02:35:44;;;;;;;2.70;1.30;;;;;;;18.96;41.37;99562.16;5099616;27;38593;-76
2022/08/09 02:38:14;;;;;;;1.53;1.33;;;;;;;18.92;41.46;99558.00;5116698;27;41400;-76
2022/08/09 02:40:44;;;;;;;2.03;1.10;;;;;;;18.90;41.22;99562.69;5116295;27;41792;-76
2022/08/09 02:43:14;;;;;;;1.60;1.50;;;;;;;18.87;41.69;99565.63;5099571;27;43729;-76
2022/08/09 02:45:44;;;;;;;1.60;1.30;;;;;;;18.75;41.84;99558.63;5099393;27;38747;-77
2022/08/09 02:48:17;;;;;;;1.57;1.17;;;;;;;18.69;42.34;99543.03;5099550;27;43982;-75
2022/08/09 02:50:50;;;;;;;1.70;1.40;;;;;;;18.79;42.60;99557.38;5099682;27;41906;-75
2022/08/09 02:53:24;;;;;;;1.53;1.43;;;;;;;18.75;42.42;99558.63;5116097;27;41143;-75
2022/08/09 02:55:52;;;;;;;2.17;1.40;;;;;;;18.69;42.58;99559.13;5115404;27;40644;-76
2022/08/09 02:58:24;;;;;;;1.63;1.33;;;;;;;18.69;42.24;99558.28;5116610;27;41580;-76
2022/08/09 03:00:53;;;;;;;2.63;1.53;;;;;;;18.66;42.32;99562.09;5115634;27;44008;-76
2022/08/09 03:03:22;;;;;;;1.63;1.37;;;;;;;18.60;42.21;99554.56;5099528;27;42751;-76
2022/08/09 03:05:51;;;;;;;1.67;1.43;;;;;;;18.56;42.06;99555.75;5099219;27;39993;-75
2022/08/09 03:08:21;;;;;;;3.33;1.67;;;;;;;18.57;42.09;99560.13;5099289;27;42179;-75
2022/08/09 03:10:50;;;;;;;2.27;1.63;;;;;;;18.54;42.25;99565.78;5099038;27;42686;-76
2022/08/09 03:13:23;;;;;;;1.67;1.20;;;;;;;18.42;42.28;99556.09;5116425;27;42167;-76
2022/08/09 03:15:52;;;;;;;1.93;1.20;;;;;;;18.45;42.37;99556.66;5099049;27;39218;-77
2022/08/09 03:18:21;;;;;;;1.80;1.00;;;;;;;18.45;42.51;99566.53;5098972;27;41408;-77
2022/08/09 03:20:51;;;;;;;2.43;1.33;;;;;;;18.41;42.19;99568.63;5098838;27;41664;-77
2022/08/09 03:23:20;;;;;;;1.53;1.20;;;;;;;18.29;42.71;99551.75;5134117;27;42179;-75
2022/08/09 03:25:50;;;;;;;1.47;1.37;;;;;;;18.37;42.79;99566.31;5098871;27;39147;-77
2022/08/09 03:28:18;;;;;;;1.23;1.10;;;;;;;18.35;42.93;99573.66;5098943;27;42144;-77
2022/08/09 03:30:48;;;;;;;2.43;1.37;;;;;;;18.32;43.09;99577.44;5098705;27;42686;-76
2022/08/09 03:33:18;;;;;;;4.33;1.60;;;;;;;18.03;43.39;99526.25;5098831;27;41152;-76
2022/08/09 03:35:49;;;;;;;2.03;1.53;;;;;;;18.25;43.26;99574.41;5134231;27;39944;-76
2022/08/09 03:38:17;;;;;;;2.70;1.40;;;;;;;18.23;43.78;99573.69;5131411;27;41526;-76
2022/08/09 03:40:45;;;;;;;2.50;1.23;;;;;;;18.19;43.49;99571.38;5115554;27;42874;-76
2022/08/09 03:43:12;;;;;;;1.23;1.13;;;;;;;18.20;43.42;99573.06;5115711;27;41063;-76
2022/08/09 03:45:40;;;;;;;1.80;1.43;;;;;;;18.17;43.44;99568.84;5115576;27;39880;-76
2022/08/09 03:48:09;;;;;;;1.50;1.40;;;;;;;18.15;43.83;99570.78;5115145;27;40979;-77
2022/08/09 03:50:39;;;;;;;3.30;1.80;;;;;;;18.15;43.76;99580.66;5098336;27;42867;-75
2022/08/09 03:53:09;;;;;;;2.40;1.30;;;;;;;18.03;44.02;99566.44;5115563;27;42461;-74
2022/08/09 03:55:37;;;;;;;1.90;1.80;;;;;;;18.13;44.04;99583.47;5098409;27;38928;-74
2022/08/09 03:58:05;;;;;;;1.30;1.17;;;;;;;18.11;43.55;99580.06;5115649;27;40493;-77
2022/08/09 04:00:33;;;;;;;1.77;1.40;;;;;;;18.09;43.68;99587.38;5115020;27;44326;-76
2022/08/09 04:03:02;;;;;;;3.63;1.77;;;;;;;17.98;44.07;99568.63;5098331;27;41398;-77
2022/08/09 04:05:31;;;;;;;2.73;1.60;;;;;;;18.02;43.63;99580.81;5115554;27;40629;-75
2022/08/09 04:07:59;;;;;;;2.50;1.30;;;;;;;18.01;44.01;99584.47;5115479;27;43538;-76
2022/08/09 04:10:27;;;;;;;1.40;1.27;;;;;;;17.97;44.13;99583.00;5098141;27;42804;-77
2022/08/09 04:12:55;;;;;;;2.43;1.57;;;;;;;18.06;44.09;99602.84;5115184;27;42476;-78
2022/08/09 04:15:24;;;;;;;2.30;1.27;;;;;;;17.98;43.88;99586.53;5097952;27;38960;-76
2022/08/09 04:17:52;;;;;;;1.60;1.50;;;;;;;18.06;44.34;99603.69;5115174;27;42763;-76
2022/08/09 04:20:20;;;;;;;1.47;1.37;;;;;;;18.09;44.36;99602.59;5115341;27;42809;-76
2022/08/09 04:22:49;;;;;;;2.07;1.57;;;;;;;18.09;44.32;99603.47;5097998;27;41427;-76
2022/08/09 04:25:16;;;;;;;1.73;1.33;;;;;;;18.04;44.27;99594.94;5115032;27;39889;-77
2022/08/09 04:27:44;;;;;;;2.70;1.33;;;;;;;18.13;44.70;99610.28;5098046;27;42065;-77
2022/08/09 04:30:15;;;;;;;1.70;1.50;;;;;;;18.16;44.33;99611.88;5115015;27;43783;-76
2022/08/09 04:32:43;;;;;;;1.50;1.40;;;;;;;18.15;44.49;99608.31;5112100;27;42908;-76
2022/08/09 04:35:12;;;;;;;2.93;1.63;;;;;;;18.19;44.29;99616.94;5114032;27;38749;-74
2022/08/09 04:37:40;;;;;;;2.93;1.33;;;;;;;18.19;44.25;99620.50;5097910;27;41915;-74
2022/08/09 04:40:11;;;;;;;3.30;1.70;;;;;;;18.23;44.35;99626.47;5097384;27;42057;-75
2022/08/09 04:42:39;;;;;;;1.50;1.40;;;;;;;18.17;44.26;99614.44;5097729;27;42335;-75
2022/08/09 04:45:08;;;;;;;2.10;1.80;;;;;;;18.19;44.39;99608.91;5114170;27;39995;-77
2022/08/09 04:47:36;;;;;;;1.70;1.60;;;;;;;18.36;44.20;99632.53;5097428;27;42325;-76
2022/08/09 04:50:04;;;;;;;4.37;2.30;;;;;;;18.36;44.33;99616.44;5114874;27;43529;-76
2022/08/09 04:52:32;;;;;;;3.07;2.20;;;;;;;18.53;44.23;99636.50;5097684;27;41162;-75
2022/08/09 04:55:01;;;;;;;2.10;1.53;;;;;;;18.62;44.26;99630.41;5113606;27;38797;-76
2022/08/09 04:57:32;;;;;;;3.23;1.70;;;;;;;18.72;43.74;99639.38;5097739;27;42383;-76
2022/08/09 05:00:00;;;;;;;2.20;1.47;;;;;;;18.76;43.89;99637.31;5097383;27;42911;-76
2022/08/09 05:02:28;;;;;;;1.90;1.80;;;;;;;18.86;43.66;99638.22;5097493;27;42787;-77
2022/08/09 05:04:56;;;;;;;2.43;1.33;;;;;;;18.95;43.28;99645.50;5097450;27;39948;-76
2022/08/09 05:07:24;;;;;;;2.43;1.33;;;;;;;18.90;43.52;99632.47;5114643;27;42101;-77
2022/08/09 05:09:52;;;;;;;2.00;1.80;;;;;;;19.11;42.88;99658.47;5114217;27;43730;-76
2022/08/09 05:12:20;;;;;;;2.20;1.53;;;;;;;19.18;43.21;99655.13;5097485;27;41131;-76
2022/08/09 05:14:49;;;;;;;1.47;1.37;;;;;;;19.11;43.10;99647.75;5097031;27;38769;-76
2022/08/09 05:17:17;;;;;;;3.70;1.83;;;;;;;19.01;42.71;99628.88;5097343;27;40878;-76
2022/08/09 05:19:44;;;;;;;2.63;1.40;;;;;;;19.36;42.45;99682.25;5114201;27;43109;-76
2022/08/09 05:22:12;;;;;;;4.73;2.33;;;;;;;19.42;42.67;99681.72;5097079;27;41354;-76
2022/08/09 05:24:40;;;;;;;2.00;1.70;;;;;;;19.50;42.15;99681.97;5096785;27;38747;-75
2022/08/09 05:27:07;;;;;;;1.73;1.63;;;;;;;19.58;42.51;99690.22;5097277;27;43320;-76
2022/08/09 05:29:35;;;;;;;2.13;1.90;;;;;;;19.66;42.31;99689.53;5114127;27;42779;-75
2022/08/09 05:32:05;;;;;;;2.07;1.87;;;;;;;19.64;42.19;99675.41;5097276;27;41127;-75
2022/08/09 05:34:33;;;;;;;2.07;1.70;;;;;;;19.73;41.88;99675.44;5097024;27;39253;-76
2022/08/09 05:37:03;;;;;;;2.30;2.10;;;;;;;19.94;42.14;99687.97;5114256;27;41848;-75
2022/08/09 05:39:31;;;;;;;3.87;1.63;;;;;;;20.05;42.02;99701.31;5113745;27;42848;-75
2022/08/09 05:41:58;;;;;;;2.13;1.70;;;;;;;20.15;41.93;99694.19;5114041;27;42275;-75
2022/08/09 05:44:27;;;;;;;3.33;1.47;;;;;;;20.19;41.59;99703.66;5113906;27;40905;-75
2022/08/09 05:46:55;;;;;;;2.40;1.70;;;;;;;20.29;41.46;99692.91;5116676;27;43067;-76
2022/08/09 05:49:24;;;;;;;1.60;1.50;;;;;;;20.50;41.57;99714.41;5135081;27;43784;-76
2022/08/09 05:51:52;;;;;;;3.93;1.50;;;;;;;20.67;41.21;99719.09;5117292;27;41314;-76
2022/08/09 05:54:19;;;;;;;2.60;1.50;;;;;;;20.85;40.89;99722.84;5100464;27;39882;-77
2022/08/09 05:56:47;;;;;;;1.30;1.20;;;;;;;20.96;40.88;99720.00;5117323;27;41543;-76
2022/08/09 05:59:15;;;;;;;1.50;1.40;;;;;;;21.06;41.04;99718.16;5100070;27;41844;-76
2022/08/09 06:01:43;;;;;;;2.30;1.53;;;;;;;21.15;40.77;99722.69;5117469;27;41042;-75
2022/08/09 06:04:10;;;;;;;2.57;1.57;;;;;;;21.28;40.44;99726.97;5100251;27;38986;-76
2022/08/09 06:06:40;;;;;;;1.60;1.50;;;;;;;21.39;39.95;99722.28;5117175;27;40387;-76
2022/08/09 06:09:08;;;;;;;1.77;1.60;;;;;;;21.58;39.98;99732.19;5135231;27;44103;-77
2022/08/09 06:11:36;;;;;;;2.07;1.50;;;;;;;21.70;39.74;99728.34;5117440;27;42323;-76
2022/08/09 06:14:04;;;;;;;1.27;1.20;;;;;;;21.65;39.59;99700.09;5099483;27;38724;-76
2022/08/09 06:16:31;;;;;;;1.63;1.40;;;;;;;21.90;39.63;99712.09;5117101;27;41721;-76
2022/08/09 06:18:59;;;;;;;2.97;1.50;;;;;;;22.15;39.36;99722.25;5116913;27;42771;-76
2022/08/09 06:21:27;;;;;;;1.70;1.60;;;;;;;22.36;38.98;99731.00;5117057;27;42552;-76
2022/08/09 06:23:57;;;;;;;1.80;1.60;;;;;;;22.45;38.55;99724.69;5135408;27;41176;-76
2022/08/09 06:26:25;;;;;;;1.77;1.33;;;;;;;22.71;38.48;99737.47;5099751;27;42567;-76
2022/08/09 06:28:55;;;;;;;1.87;1.33;;;;;;;22.79;38.11;99724.09;5135295;27;42884;-76
2022/08/09 06:31:23;;;;;;;1.60;1.40;;;;;;;23.06;37.58;99731.28;5116699;27;42333;-76
2022/08/09 06:33:50;;;;;;;1.40;1.30;;;;;;;23.35;37.42;99752.69;5117013;27;39945;-76
2022/08/09 06:36:18;;;;;;;1.73;1.53;;;;;;;23.60;36.94;99751.91;5116294;27;41850;-76
2022/08/09 06:38:46;;;;;;;3.23;1.70;;;;;;;23.93;36.12;99736.75;5116880;27;42823;-75
2022/08/09 06:41:17;;;;;;;2.83;1.60;;;;;;;24.83;35.15;99762.44;5099245;27;41481;-76
2022/08/09 06:43:45;;;;;;;2.57;1.67;;;;;;;25.78;33.71;99778.19;5113813;27;40628;-76
2022/08/09 06:46:13;;;;;;;1.83;1.23;;;;;;;26.32;32.93;99776.59;5116455;27;42944;-76
2022/08/09 06:48:41;;;;;;;1.43;1.33;;;;;;;26.50;33.04;99773.66;5115732;27;43575;-76
2022/08/09 06:51:09;;;;;;;3.50;1.77;;;;;;;26.19;32.25;99759.13;5134727;27;42227;-76
2022/08/09 06:53:38;;;;;;;1.47;1.37;;;;;;;26.27;32.78;99780.81;5116724;27;39859;-76
2022/08/09 06:56:06;;;;;;;2.47;1.60;;;;;;;26.19;32.29;99775.41;5116393;27;42392;-76
2022/08/09 06:58:35;;;;;;;1.50;1.40;;;;;;;26.27;32.53;99786.25;5115572;27;42912;-76
2022/08/09 07:01:03;;;;;;;2.20;1.30;;;;;;;26.22;32.24;99788.63;5116089;27;43088;-76
2022/08/09 07:03:33;;;;;;;2.17;1.50;;;;;;;26.01;32.60;99753.91;5116568;27;40948;-76
2022/08/09 07:06:01;;;;;;;3.17;1.50;;;;;;;26.06;32.90;99765.94;5098897;27;41782;-76
2022/08/09 07:08:30;;;;;;;2.40;1.40;;;;;;;26.12;32.14;99786.09;5099275;27;42618;-76
2022/08/09 07:10:57;;;;;;;2.63;1.30;;;;;;;26.03;32.72;99763.56;5098658;27;41411;-76
2022/08/09 07:13:25;;;;;;;2.10;1.70;;;;;;;26.17;32.35;99785.59;5116157;27;40249;-76
2022/08/09 07:15:54;;;;;;;2.47;1.40;;;;;;;26.31;32.62;99782.22;5115667;27;42430;-76
2022/08/09 07:18:22;;;;;;;1.67;1.13;;;;;;;26.54;32.58;99775.00;5116159;27;42811;-76
2022/08/09 07:20:51;;;;;;;2.30;1.70;;;;;;;26.36;32.33;99736.34;5098651;27;41120;-76
2022/08/09 07:23:19;;;;;;;1.40;1.30;;;;;;;26.66;32.09;99781.75;5116015;27;38640;-76
2022/08/09 07:25:47;;;;;;;2.30;1.70;;;;;;;26.84;31.76;99790.47;5134162;27;41692;-76
2022/08/09 07:28:15;;;;;;;3.23;1.50;;;;;;;27.04;30.69;99795.53;5134502;27;43754;-76
2022/08/09 07:30:42;;;;;;;3.77;1.47;;;;;;;27.05;30.35;99775.47;5115803;27;42290;-76
2022/08/09 07:33:12;;;;;;;2.50;1.23;;;;;;;27.27;30.69;99780.06;5134353;27;39749;-76
2022/08/09 07:35:39;;;;;;;1.53;1.30;;;;;;;27.63;30.30;99791.22;5134241;27;41497;-76
2022/08/09 07:38:07;;;;;;;1.87;1.20;;;;;;;27.92;29.61;99787.75;5134170;27;43769;-76
2022/08/09 07:40:35;;;;;;;1.40;1.30;;;;;;;28.19;29.06;99803.50;5115728;27;42264;-76
2022/08/09 07:43:03;;;;;;;1.53;1.20;;;;;;;28.26;29.17;99802.75;5098904;27;39123;-76
2022/08/09 07:45:32;;;;;;;3.17;1.30;;;;;;;28.16;28.61;99782.06;5098247;27;40718;-76
2022/08/09 07:48:00;;;;;;;1.27;1.17;;;;;;;28.40;28.97;99804.66;5098786;27;41569;-76
2022/08/09 07:50:29;;;;;;;1.70;1.20;;;;;;;28.52;28.10;99800.44;5115116;27;42810;-76
2022/08/09 07:52:57;;;;;;;3.00;1.60;;;;;;;28.65;28.32;99789.69;5115410;27;40142;-76
2022/08/09 07:55:25;;;;;;;1.93;1.20;;;;;;;29.03;28.24;99795.88;5096905;27;41690;-76
2022/08/09 07:57:53;;;;;;;1.20;1.10;;;;;;;29.64;27.27;99815.47;5115647;27;42766;-76
2022/08/09 08:00:20;;;;;;;1.60;1.50;;;;;;;30.15;26.40;99823.50;5133514;27;42256;-76
2022/08/09 08:02:48;;;;;;;1.50;1.17;;;;;;;30.34;26.73;99818.19;5098366;27;41197;-76
2022/08/09 08:05:16;;;;;;;1.00;1.00;;;;;;;30.39;26.24;99798.44;5098107;27;41847;-76
2022/08/09 08:07:45;;;;;;;3.90;1.30;;;;;;;30.71;25.85;99818.84;5133738;27;42363;-76
2022/08/09 08:10:13;;;;;;;2.27;1.37;;;;;;;30.86;25.47;99824.19;5133458;27;42218;-76
2022/08/09 08:12:42;;;;;;;1.33;1.23;;;;;;;30.94;25.53;99824.84;5098169;27;39216;-76
2022/08/09 08:15:11;;;;;;;1.67;1.30;;;;;;;30.97;25.35;99824.44;5097875;27;41916;-76
2022/08/09 08:17:39;;;;;;;1.33;1.23;;;;;;;31.17;25.36;99829.19;5097918;27;42100;-77
2022/08/09 08:20:07;;;;;;;1.43;1.20;;;;;;;31.61;24.56;99821.31;5097761;27;42651;-77
2022/08/09 08:22:35;;;;;;;2.03;1.17;;;;;;;32.10;24.26;99825.59;5115243;27;40654;-76
2022/08/09 08:25:05;;;;;;;1.90;1.37;;;;;;;32.30;24.02;99840.13;5097307;27;42165;-77
2022/08/09 08:27:33;;;;;;;1.33;1.20;;;;;;;32.37;23.65;99837.41;5133375;27;42742;-76
2022/08/09 08:30:01;;;;;;;1.83;1.20;;;;;;;32.39;23.27;99836.13;5114726;27;41805;-76
2022/08/09 08:32:29;;;;;;;1.70;1.20;;;;;;;32.34;23.01;99833.19;5097921;27;40508;-76
2022/08/09 08:34:57;;;;;;;1.40;1.30;;;;;;;32.76;23.05;99842.00;5114733;27;42845;-76
2022/08/09 08:37:25;;;;;;;1.60;1.20;;;;;;;33.70;22.29;99839.47;5097752;27;42880;-76
2022/08/09 08:39:54;;;;;;;1.67;1.27;;;;;;;34.68;21.53;99847.97;5132953;27;42372;-77
2022/08/09 08:42:23;;;;;;;2.57;1.07;;;;;;;35.43;20.57;99856.84;5114948;27;40828;-74
2022/08/09 08:44:56;;;;;;;1.67;1.40;;;;;;;36.14;19.84;99850.47;5114433;27;42041;-77
2022/08/09 08:47:25;;;;;;;1.50;1.40;;;;;;;37.31;18.76;99865.09;5114840;27;41988;-74
2022/08/09 08:49:53;;;;;;;1.52;1.42;;;;;;;38.29;17.69;99866.66;5131696;27;43195;-75
2022/08/09 08:52:24;;;;;;;1.40;1.30;;;;;;;38.82;17.17;99872.75;5114394;27;40825;-75
2022/08/09 08:54:53;;;;;;;1.35;1.13;;;;;;;39.72;16.70;99866.66;5097052;27;40819;-75
2022/08/09 08:57:24;;;;;;;2.13;1.23;;;;;;;40.55;15.36;99879.13;5114214;27;43743;-75
2022/08/09 08:59:53;;;;;;;1.77;1.58;;;;;;;40.90;15.08;99875.75;5112194;27;43593;-77
2022/08/09 09:02:25;;;;;;;1.52;1.42;;;;;;;41.17;15.23;99867.28;5097276;27;39143;-77
2022/08/09 09:04:54;;;;;;;2.00;1.40;;;;;;;41.24;14.11;99859.50;5130334;27;42753;-77
2022/08/09 09:07:24;;;;;;;1.40;1.30;;;;;;;40.66;14.58;99858.63;5096780;27;42301;-77
2022/08/09 09:09:54;;;;;;;2.35;1.38;;;;;;;40.14;15.01;99851.00;5113939;27;43031;-77
2022/08/09 09:12:25;;;;;;;1.60;1.50;;;;;;;39.90;15.53;99855.22;5097006;27;40972;-78
2022/08/09 09:14:54;;;;;;;2.22;1.48;;;;;;;39.85;15.41;99864.34;5096651;27;41072;-77
2022/08/09 09:17:22;;;;;;;1.58;1.40;;;;;;;39.92;14.83;99861.38;5113886;27;43867;-77
2022/08/09 09:19:51;;;;;;;2.95;1.60;;;;;;;40.36;14.80;99861.19;5111394;27;42937;-76
2022/08/09 09:22:19;;;;;;;1.98;1.58;;;;;;;40.73;14.53;99869.53;5113538;27;39583;-73
2022/08/09 09:24:49;;;;;;;1.88;1.60;;;;;;;40.57;14.53;99868.53;5096444;27;41752;-75
2022/08/09 09:27:19;;;;;;;1.63;1.52;;;;;;;40.90;14.31;99865.47;5096778;27;41965;-76
2022/08/09 09:29:49;;;;;;;1.73;1.48;;;;;;;42.09;13.84;99866.41;5096448;27;42719;-77
2022/08/09 09:32:22;;;;;;;1.55;1.45;;;;;;;42.66;13.18;99865.25;5096875;27;39027;-77
2022/08/09 09:35:04;;;;;;;1.48;1.38;;;;;;;42.47;13.35;99862.25;5096574;27;42141;-76
2022/08/09 09:37:32;;;;;;;2.03;1.20;;;;;;;42.09;13.65;99871.97;5113247;27;44815;-75
2022/08/09 09:40:00;;;;;;;2.83;1.35;;;;;;;41.19;14.42;99860.31;5131901;27;42289;-76
2022/08/09 09:42:29;;;;;;;1.60;1.50;;;;;;;40.47;14.69;99829.59;5113905;27;41692;-77
2022/08/09 09:45:01;;;;;;;1.50;1.40;;;;;;;40.26;14.76;99869.41;5113232;27;40761;-76
2022/08/09 09:47:29;;;;;;;1.60;1.50;;;;;;;39.83;14.96;99838.75;5113527;27;43132;-77
2022/08/09 09:49:59;;;;;;;2.33;1.50;;;;;;;39.63;15.03;99849.66;5096116;27;40841;-76
2022/08/09 09:52:27;;;;;;;1.67;1.58;;;;;;;39.57;15.29;99858.19;5096536;27;40139;-76
2022/08/09 09:55:01;;;;;;;3.10;1.35;;;;;;;39.76;15.20;99848.41;5096182;27;40696;-76
2022/08/09 09:57:29;;;;;;;1.45;1.35;;;;;;;40.05;15.06;99849.81;5096751;27;42290;-76
2022/08/09 09:59:57;;;;;;;3.95;1.70;;;;;;;40.48;14.28;99853.50;5131590;27;43188;-76
2022/08/09 10:02:28;;;;;;;3.05;1.70;;;;;;;40.74;14.03;99852.59;5096331;27;39056;-76
2022/08/09 10:05:06;;;;;;;1.70;1.60;;;;;;;40.53;14.11;99853.53;5111183;27;42030;-76
2022/08/09 10:07:35;;;;;;;1.75;1.40;;;;;;;40.03;14.62;99853.97;5127782;27;42617;-75
2022/08/09 10:10:05;;;;;;;1.88;1.60;;;;;;;39.63;14.64;99843.28;5096077;27;44164;-76
2022/08/09 10:12:35;;;;;;;1.40;1.30;;;;;;;39.30;14.93;99834.03;5096282;27;40764;-76
2022/08/09 10:15:06;;;;;;;1.40;1.30;;;;;;;39.11;15.12;99852.09;5112842;27;41299;-75
2022/08/09 10:17:36;;;;;;;1.30;1.20;;;;;;;38.93;15.23;99838.53;5112899;27;41924;-75
2022/08/09 10:20:07;;;;;;;2.58;1.35;;;;;;;38.66;15.63;99833.75;5095906;27;41300;-76
2022/08/09 10:22:37;;;;;;;1.40;1.30;;;;;;;38.33;15.56;99850.38;5110024;27;41004;-75
2022/08/09 10:25:07;;;;;;;2.13;1.37;;;;;;;38.08;16.03;99837.78;5112726;27;42524;-76
2022/08/09 10:27:35;;;;;;;2.20;1.23;;;;;;;38.46;15.78;99844.47;5095903;27;43288;-75
2022/08/09 10:30:05;;;;;;;1.30;1.20;;;;;;;39.09;15.55;99849.56;5112175;27;42672;-76
2022/08/09 10:32:35;;;;;;;1.30;1.20;;;;;;;39.41;15.11;99841.41;5113825;27;40605;-75
2022/08/09 10:35:04;;;;;;;1.50;1.40;;;;;;;39.93;14.79;99838.06;5099104;27;41696;-76
2022/08/09 10:37:31;;;;;;;1.60;1.50;;;;;;;40.14;14.22;99836.28;5099146;27;41878;-75
2022/08/09 10:39:59;;;;;;;1.70;1.60;;;;;;;40.50;14.37;99832.69;5098952;27;42332;-76
2022/08/09 10:42:27;;;;;;;1.25;1.20;;;;;;;40.80;14.07;99845.94;5116540;27;40040;-76
2022/08/09 10:44:59;;;;;;;1.63;1.52;;;;;;;41.09;13.65;99851.06;5099314;27;41980;-75
2022/08/09 10:47:49;;;;;;;1.73;1.63;;;;;;;40.89;13.77;99846.28;5113391;27;44062;-75
2022/08/09 10:50:27;;;;;;;2.17;1.33;;;;;;;41.18;13.92;99838.34;5115924;27;41142;-75
2022/08/09 10:53:05;;;;;;;1.75;1.30;;;;;;;41.19;13.75;99813.06;5099326;27;39230;-76
2022/08/09 10:55:34;;;;;;;1.67;1.30;;;;;;;41.20;14.08;99841.69;5097514;27;41665;-75
2022/08/09 10:58:02;;;;;;;1.88;1.70;;;;;;;41.15;13.87;99828.63;5098915;27;41902;-75
2022/08/09 11:00:39;;;;;;;1.70;1.58;;;;;;;41.40;13.48;99836.22;5115534;27;42308;-76
2022/08/09 11:03:24;;;;;;;2.67;1.45;;;;;;;41.18;13.70;99827.22;5099205;27;39122;-76
2022/08/09 11:06:20;;;;;;;1.92;1.83;;;;;;;40.87;13.54;99832.66;5114293;27;40858;-76
2022/08/09 11:08:49;;;;;;;1.75;1.40;;;;;;;40.33;14.61;99803.41;5114739;27;43783;-76
2022/08/09 11:11:19;;;;;;;1.45;1.27;;;;;;;40.22;14.91;99808.03;5134119;27;43207;-76
2022/08/09 11:13:47;;;;;;;1.50;1.40;;;;;;;40.48;14.22;99806.28;5134420;27;40391;-75
2022/08/09 11:16:35;;;;;;;1.50;1.40;;;;;;;40.88;14.20;99820.44;5098368;27;40756;-76
2022/08/09 11:19:05;;;;;;;2.15;1.35;;;;;;;41.19;13.84;99810.28;5115371;27;42558;-76
2022/08/09 11:21:54;;;;;;;1.35;1.25;;;;;;;42.51;13.23;99812.38;5112359;27;42296;-75
2022/08/09 11:24:22;;;;;;;1.40;1.30;;;;;;;43.66;12.86;99824.16;5112802;27;41929;-75
2022/08/09 11:26:50;;;;;;;1.75;1.42;;;;;;;44.19;12.10;99821.50;5134044;27;41716;-76
2022/08/09 11:29:52;;;;;;;1.30;1.20;;;;;;;44.20;12.12;99817.59;5134001;27;44048;-76
2022/08/09 11:32:42;;;;;;;1.42;1.27;;;;;;;43.61;12.36;99815.00;5134104;27;42199;-76
2022/08/09 11:35:15;;;;;;;3.03;1.40;;;;;;;43.14;13.09;99809.94;5090280;27;38756;-75
2022/08/09 11:37:44;;;;;;;2.15;1.52;;;;;;;42.83;13.17;99801.69;5112483;27;43152;-75
2022/08/09 11:40:14;;;;;;;1.50;1.40;;;;;;;42.74;13.35;99811.75;5115177;27;42837;-75
2022/08/09 11:42:46;;;;;;;3.20;1.70;;;;;;;42.53;13.15;99812.94;5098254;27;42611;-75
2022/08/09 11:45:22;;;;;;;2.00;1.50;;;;;;;42.03;13.54;99803.50;5133692;27;40205;-76
2022/08/09 11:47:52;;;;;;;1.45;1.35;;;;;;;41.80;13.32;99815.16;5112210;27;43008;-76